sensor_id;sensor_type;location;lat;lon;timestamp;P1;durP1;ratioP1;P2;durP2;ratioP2
65328;SDS011;51941;52.210;5.158;2023-06-22T00:00:04;2.63;;;2.42;;
65328;SDS011;51941;52.210;5.158;2023-06-22T00:02:37;3.35;;;3.03;;
65328;SDS011;51941;52.210;5.158;2023-06-22T00:05:04;4.80;;;3.22;;
65328;SDS011;51941;52.210;5.158;2023-06-22T00:07:31;5.22;;;4.25;;
65328;SDS011;51941;52.210;5.158;2023-06-22T00:09:59;7.20;;;3.63;;
65328;SDS011;51941;52.210;5.158;2023-06-22T00:12:26;3.75;;;3.30;;
65328;SDS011;51941;52.210;5.158;2023-06-22T00:14:52;4.45;;;3.85;;
65328;SDS011;51941;52.210;5.158;2023-06-22T00:17:19;4.47;;;3.70;;
65328;SDS011;51941;52.210;5.158;2023-06-22T00:19:46;6.03;;;3.88;;
65328;SDS011;51941;52.210;5.158;2023-06-22T00:22:18;4.72;;;3.80;;
65328;SDS011;51941;52.210;5.158;2023-06-22T00:24:46;4.47;;;3.90;;
65328;SDS011;51941;52.210;5.158;2023-06-22T00:27:14;4.68;;;3.88;;
65328;SDS011;51941;52.210;5.158;2023-06-22T00:29:41;8.75;;;3.83;;
65328;SDS011;51941;52.210;5.158;2023-06-22T00:32:08;3.97;;;3.10;;
65328;SDS011;51941;52.210;5.158;2023-06-22T00:34:34;3.58;;;3.28;;
65328;SDS011;51941;52.210;5.158;2023-06-22T00:37:01;4.28;;;3.35;;
65328;SDS011;51941;52.210;5.158;2023-06-22T00:39:27;3.50;;;3.20;;
65328;SDS011;51941;52.210;5.158;2023-06-22T00:41:54;4.75;;;4.15;;
65328;SDS011;51941;52.210;5.158;2023-06-22T00:44:26;5.53;;;3.70;;
65328;SDS011;51941;52.210;5.158;2023-06-22T00:46:52;8.32;;;5.10;;
65328;SDS011;51941;52.210;5.158;2023-06-22T00:49:19;6.80;;;5.93;;
65328;SDS011;51941;52.210;5.158;2023-06-22T00:51:46;7.78;;;6.35;;
65328;SDS011;51941;52.210;5.158;2023-06-22T00:54:13;10.55;;;7.07;;
65328;SDS011;51941;52.210;5.158;2023-06-22T00:56:39;9.30;;;6.82;;
65328;SDS011;51941;52.210;5.158;2023-06-22T00:59:07;8.13;;;6.55;;
65328;SDS011;51941;52.210;5.158;2023-06-22T01:01:38;13.18;;;6.57;;
65328;SDS011;51941;52.210;5.158;2023-06-22T01:04:06;8.55;;;6.65;;
65328;SDS011;51941;52.210;5.158;2023-06-22T01:06:34;9.65;;;6.68;;
65328;SDS011;51941;52.210;5.158;2023-06-22T01:09:06;9.95;;;5.95;;
65328;SDS011;51941;52.210;5.158;2023-06-22T01:11:41;9.07;;;6.60;;
65328;SDS011;51941;52.210;5.158;2023-06-22T01:14:12;8.05;;;6.78;;
65328;SDS011;51941;52.210;5.158;2023-06-22T01:16:48;8.85;;;6.78;;
65328;SDS011;51941;52.210;5.158;2023-06-22T01:19:22;8.82;;;7.07;;
65328;SDS011;51941;52.210;5.158;2023-06-22T01:22:01;9.63;;;7.65;;
65328;SDS011;51941;52.210;5.158;2023-06-22T01:24:32;9.67;;;8.20;;
65328;SDS011;51941;52.210;5.158;2023-06-22T01:27:09;11.05;;;8.55;;
65328;SDS011;51941;52.210;5.158;2023-06-22T01:29:49;12.13;;;8.30;;
65328;SDS011;51941;52.210;5.158;2023-06-22T01:32:19;9.93;;;7.13;;
65328;SDS011;51941;52.210;5.158;2023-06-22T01:34:47;11.25;;;8.27;;
65328;SDS011;51941;52.210;5.158;2023-06-22T01:37:15;9.90;;;7.50;;
65328;SDS011;51941;52.210;5.158;2023-06-22T01:39:42;8.68;;;7.15;;
65328;SDS011;51941;52.210;5.158;2023-06-22T01:42:09;8.57;;;7.22;;
65328;SDS011;51941;52.210;5.158;2023-06-22T01:44:39;10.13;;;6.90;;
65328;SDS011;51941;52.210;5.158;2023-06-22T01:47:09;11.48;;;8.90;;
65328;SDS011;51941;52.210;5.158;2023-06-22T01:49:39;10.30;;;8.70;;
65328;SDS011;51941;52.210;5.158;2023-06-22T01:52:06;10.27;;;8.23;;
65328;SDS011;51941;52.210;5.158;2023-06-22T01:54:33;10.05;;;8.80;;
65328;SDS011;51941;52.210;5.158;2023-06-22T01:57:00;12.57;;;9.98;;
65328;SDS011;51941;52.210;5.158;2023-06-22T01:59:29;10.52;;;9.40;;
65328;SDS011;51941;52.210;5.158;2023-06-22T02:02:01;13.30;;;8.57;;
65328;SDS011;51941;52.210;5.158;2023-06-22T02:04:35;17.15;;;10.15;;
65328;SDS011;51941;52.210;5.158;2023-06-22T02:07:08;11.15;;;8.88;;
65328;SDS011;51941;52.210;5.158;2023-06-22T02:09:38;12.18;;;9.80;;
65328;SDS011;51941;52.210;5.158;2023-06-22T02:12:09;12.25;;;9.57;;
65328;SDS011;51941;52.210;5.158;2023-06-22T02:14:39;12.65;;;10.02;;
65328;SDS011;51941;52.210;5.158;2023-06-22T02:17:08;14.50;;;9.35;;
65328;SDS011;51941;52.210;5.158;2023-06-22T02:19:37;11.93;;;10.05;;
65328;SDS011;51941;52.210;5.158;2023-06-22T02:22:08;14.60;;;10.50;;
65328;SDS011;51941;52.210;5.158;2023-06-22T02:24:35;13.23;;;10.68;;
65328;SDS011;51941;52.210;5.158;2023-06-22T02:27:02;13.38;;;9.45;;
65328;SDS011;51941;52.210;5.158;2023-06-22T02:29:32;12.82;;;10.25;;
65328;SDS011;51941;52.210;5.158;2023-06-22T02:31:58;14.57;;;10.43;;
65328;SDS011;51941;52.210;5.158;2023-06-22T02:34:25;13.27;;;10.23;;
65328;SDS011;51941;52.210;5.158;2023-06-22T02:36:53;13.18;;;10.63;;
65328;SDS011;51941;52.210;5.158;2023-06-22T02:39:20;13.45;;;9.93;;
65328;SDS011;51941;52.210;5.158;2023-06-22T02:41:48;11.95;;;10.15;;
65328;SDS011;51941;52.210;5.158;2023-06-22T02:44:15;12.82;;;10.20;;
65328;SDS011;51941;52.210;5.158;2023-06-22T02:46:42;13.70;;;10.60;;
65328;SDS011;51941;52.210;5.158;2023-06-22T02:49:09;14.55;;;11.50;;
65328;SDS011;51941;52.210;5.158;2023-06-22T02:51:37;13.13;;;10.27;;
65328;SDS011;51941;52.210;5.158;2023-06-22T02:54:08;15.07;;;10.27;;
65328;SDS011;51941;52.210;5.158;2023-06-22T02:56:35;14.32;;;11.07;;
65328;SDS011;51941;52.210;5.158;2023-06-22T02:59:02;14.63;;;11.15;;
65328;SDS011;51941;52.210;5.158;2023-06-22T03:01:36;14.40;;;11.85;;
65328;SDS011;51941;52.210;5.158;2023-06-22T03:04:09;13.75;;;11.05;;
65328;SDS011;51941;52.210;5.158;2023-06-22T03:06:36;13.48;;;10.63;;
65328;SDS011;51941;52.210;5.158;2023-06-22T03:09:06;14.77;;;11.57;;
65328;SDS011;51941;52.210;5.158;2023-06-22T03:11:35;14.73;;;10.65;;
65328;SDS011;51941;52.210;5.158;2023-06-22T03:14:02;13.57;;;9.82;;
65328;SDS011;51941;52.210;5.158;2023-06-22T03:16:29;14.80;;;11.15;;
65328;SDS011;51941;52.210;5.158;2023-06-22T03:18:57;13.68;;;10.45;;
65328;SDS011;51941;52.210;5.158;2023-06-22T03:21:23;12.30;;;10.55;;
65328;SDS011;51941;52.210;5.158;2023-06-22T03:23:51;13.80;;;10.68;;
65328;SDS011;51941;52.210;5.158;2023-06-22T03:26:19;13.98;;;10.88;;
65328;SDS011;51941;52.210;5.158;2023-06-22T03:28:46;13.57;;;10.20;;
65328;SDS011;51941;52.210;5.158;2023-06-22T03:31:13;14.57;;;10.13;;
65328;SDS011;51941;52.210;5.158;2023-06-22T03:33:40;15.00;;;11.18;;
65328;SDS011;51941;52.210;5.158;2023-06-22T03:36:06;16.05;;;12.07;;
65328;SDS011;51941;52.210;5.158;2023-06-22T03:38:33;13.27;;;10.25;;
65328;SDS011;51941;52.210;5.158;2023-06-22T03:41:00;14.27;;;11.70;;
65328;SDS011;51941;52.210;5.158;2023-06-22T03:43:30;16.15;;;12.13;;
65328;SDS011;51941;52.210;5.158;2023-06-22T03:45:57;18.25;;;12.05;;
65328;SDS011;51941;52.210;5.158;2023-06-22T03:48:23;15.30;;;11.82;;
65328;SDS011;51941;52.210;5.158;2023-06-22T03:50:50;17.00;;;11.60;;
65328;SDS011;51941;52.210;5.158;2023-06-22T03:53:17;13.20;;;10.77;;
65328;SDS011;51941;52.210;5.158;2023-06-22T03:55:47;15.25;;;10.93;;
65328;SDS011;51941;52.210;5.158;2023-06-22T03:58:15;14.13;;;11.48;;
65328;SDS011;51941;52.210;5.158;2023-06-22T04:00:45;15.10;;;11.55;;
65328;SDS011;51941;52.210;5.158;2023-06-22T04:03:13;16.05;;;12.07;;
65328;SDS011;51941;52.210;5.158;2023-06-22T04:05:40;16.90;;;13.38;;
65328;SDS011;51941;52.210;5.158;2023-06-22T04:08:07;20.13;;;16.10;;
65328;SDS011;51941;52.210;5.158;2023-06-22T04:10:34;20.98;;;16.50;;
65328;SDS011;51941;52.210;5.158;2023-06-22T04:13:01;19.55;;;15.45;;
65328;SDS011;51941;52.210;5.158;2023-06-22T04:15:27;22.92;;;16.17;;
65328;SDS011;51941;52.210;5.158;2023-06-22T04:17:56;23.15;;;17.55;;
65328;SDS011;51941;52.210;5.158;2023-06-22T04:20:23;22.88;;;17.60;;
65328;SDS011;51941;52.210;5.158;2023-06-22T04:22:51;24.48;;;18.00;;
65328;SDS011;51941;52.210;5.158;2023-06-22T04:25:18;28.40;;;18.52;;
65328;SDS011;51941;52.210;5.158;2023-06-22T04:27:45;24.80;;;18.75;;
65328;SDS011;51941;52.210;5.158;2023-06-22T04:30:11;24.70;;;18.70;;
65328;SDS011;51941;52.210;5.158;2023-06-22T04:32:41;21.48;;;16.75;;
65328;SDS011;51941;52.210;5.158;2023-06-22T04:35:10;21.55;;;15.93;;
65328;SDS011;51941;52.210;5.158;2023-06-22T04:37:37;24.27;;;18.33;;
65328;SDS011;51941;52.210;5.158;2023-06-22T04:40:05;22.27;;;15.93;;
65328;SDS011;51941;52.210;5.158;2023-06-22T04:42:33;19.13;;;14.13;;
65328;SDS011;51941;52.210;5.158;2023-06-22T04:45:00;16.15;;;13.27;;
65328;SDS011;51941;52.210;5.158;2023-06-22T04:47:27;16.60;;;12.65;;
65328;SDS011;51941;52.210;5.158;2023-06-22T04:49:54;21.05;;;14.80;;
65328;SDS011;51941;52.210;5.158;2023-06-22T04:52:22;18.23;;;13.90;;
65328;SDS011;51941;52.210;5.158;2023-06-22T04:54:49;18.55;;;12.48;;
65328;SDS011;51941;52.210;5.158;2023-06-22T04:57:20;18.55;;;13.82;;
65328;SDS011;51941;52.210;5.158;2023-06-22T04:59:57;18.95;;;13.75;;
65328;SDS011;51941;52.210;5.158;2023-06-22T05:02:26;17.60;;;13.50;;
65328;SDS011;51941;52.210;5.158;2023-06-22T05:04:58;17.85;;;13.82;;
65328;SDS011;51941;52.210;5.158;2023-06-22T05:07:26;20.00;;;15.00;;
65328;SDS011;51941;52.210;5.158;2023-06-22T05:09:52;19.40;;;15.10;;
65328;SDS011;51941;52.210;5.158;2023-06-22T05:12:22;15.38;;;12.32;;
65328;SDS011;51941;52.210;5.158;2023-06-22T05:14:49;19.27;;;14.52;;
65328;SDS011;51941;52.210;5.158;2023-06-22T05:17:15;19.80;;;15.57;;
65328;SDS011;51941;52.210;5.158;2023-06-22T05:19:44;19.75;;;14.80;;
65328;SDS011;51941;52.210;5.158;2023-06-22T05:22:13;21.95;;;15.07;;
65328;SDS011;51941;52.210;5.158;2023-06-22T05:24:42;18.40;;;14.30;;
65328;SDS011;51941;52.210;5.158;2023-06-22T05:27:09;22.35;;;15.40;;
65328;SDS011;51941;52.210;5.158;2023-06-22T05:29:36;21.05;;;16.73;;
65328;SDS011;51941;52.210;5.158;2023-06-22T05:32:03;18.70;;;15.80;;
65328;SDS011;51941;52.210;5.158;2023-06-22T05:34:30;24.17;;;18.55;;
65328;SDS011;51941;52.210;5.158;2023-06-22T05:36:57;19.75;;;15.35;;
65328;SDS011;51941;52.210;5.158;2023-06-22T05:39:24;21.40;;;17.38;;
65328;SDS011;51941;52.210;5.158;2023-06-22T05:41:52;16.40;;;13.40;;
65328;SDS011;51941;52.210;5.158;2023-06-22T05:44:19;24.63;;;17.90;;
65328;SDS011;51941;52.210;5.158;2023-06-22T05:46:46;26.45;;;18.73;;
65328;SDS011;51941;52.210;5.158;2023-06-22T05:49:13;20.63;;;18.42;;
65328;SDS011;51941;52.210;5.158;2023-06-22T05:51:40;23.08;;;18.42;;
65328;SDS011;51941;52.210;5.158;2023-06-22T05:54:07;21.48;;;18.45;;
65328;SDS011;51941;52.210;5.158;2023-06-22T05:56:34;25.55;;;19.23;;
65328;SDS011;51941;52.210;5.158;2023-06-22T05:59:03;24.33;;;20.33;;
65328;SDS011;51941;52.210;5.158;2023-06-22T06:01:30;23.92;;;18.08;;
65328;SDS011;51941;52.210;5.158;2023-06-22T06:04:00;22.58;;;18.25;;
65328;SDS011;51941;52.210;5.158;2023-06-22T06:06:29;31.42;;;20.30;;
65328;SDS011;51941;52.210;5.158;2023-06-22T06:08:55;23.95;;;19.50;;
65328;SDS011;51941;52.210;5.158;2023-06-22T06:11:22;29.95;;;21.90;;
65328;SDS011;51941;52.210;5.158;2023-06-22T06:13:49;25.17;;;18.77;;
65328;SDS011;51941;52.210;5.158;2023-06-22T06:16:17;24.67;;;18.95;;
65328;SDS011;51941;52.210;5.158;2023-06-22T06:18:44;25.42;;;19.73;;
65328;SDS011;51941;52.210;5.158;2023-06-22T06:21:11;24.50;;;19.88;;
65328;SDS011;51941;52.210;5.158;2023-06-22T06:23:37;24.75;;;19.80;;
65328;SDS011;51941;52.210;5.158;2023-06-22T06:26:04;25.83;;;19.63;;
65328;SDS011;51941;52.210;5.158;2023-06-22T06:28:32;25.85;;;19.83;;
65328;SDS011;51941;52.210;5.158;2023-06-22T06:30:59;23.92;;;18.92;;
65328;SDS011;51941;52.210;5.158;2023-06-22T06:33:27;22.00;;;16.17;;
65328;SDS011;51941;52.210;5.158;2023-06-22T06:35:54;29.08;;;20.15;;
65328;SDS011;51941;52.210;5.158;2023-06-22T06:38:21;24.55;;;17.92;;
65328;SDS011;51941;52.210;5.158;2023-06-22T06:40:48;23.02;;;17.88;;
65328;SDS011;51941;52.210;5.158;2023-06-22T06:43:15;19.25;;;16.17;;
65328;SDS011;51941;52.210;5.158;2023-06-22T06:45:42;20.75;;;17.55;;
65328;SDS011;51941;52.210;5.158;2023-06-22T06:48:08;19.50;;;15.57;;
65328;SDS011;51941;52.210;5.158;2023-06-22T06:50:36;22.67;;;16.85;;
65328;SDS011;51941;52.210;5.158;2023-06-22T06:53:03;22.85;;;18.23;;
65328;SDS011;51941;52.210;5.158;2023-06-22T06:55:30;21.40;;;16.75;;
65328;SDS011;51941;52.210;5.158;2023-06-22T06:57:58;21.42;;;17.25;;
65328;SDS011;51941;52.210;5.158;2023-06-22T07:00:24;20.17;;;14.88;;
65328;SDS011;51941;52.210;5.158;2023-06-22T07:02:52;19.73;;;15.65;;
65328;SDS011;51941;52.210;5.158;2023-06-22T07:05:19;18.95;;;15.95;;
65328;SDS011;51941;52.210;5.158;2023-06-22T07:07:50;20.17;;;15.57;;
65328;SDS011;51941;52.210;5.158;2023-06-22T07:10:18;18.35;;;15.05;;
65328;SDS011;51941;52.210;5.158;2023-06-22T07:12:45;17.52;;;14.55;;
65328;SDS011;51941;52.210;5.158;2023-06-22T07:15:12;20.90;;;15.18;;
65328;SDS011;51941;52.210;5.158;2023-06-22T07:17:39;15.57;;;13.30;;
65328;SDS011;51941;52.210;5.158;2023-06-22T07:20:07;19.33;;;15.43;;
65328;SDS011;51941;52.210;5.158;2023-06-22T07:22:35;19.73;;;15.20;;
65328;SDS011;51941;52.210;5.158;2023-06-22T07:25:04;19.75;;;14.80;;
65328;SDS011;51941;52.210;5.158;2023-06-22T07:27:34;22.75;;;15.35;;
65328;SDS011;51941;52.210;5.158;2023-06-22T07:30:04;16.70;;;13.57;;
65328;SDS011;51941;52.210;5.158;2023-06-22T07:32:32;18.43;;;14.63;;
65328;SDS011;51941;52.210;5.158;2023-06-22T07:34:58;18.80;;;14.45;;
65328;SDS011;51941;52.210;5.158;2023-06-22T07:37:26;18.40;;;14.77;;
65328;SDS011;51941;52.210;5.158;2023-06-22T07:39:54;18.50;;;14.38;;
65328;SDS011;51941;52.210;5.158;2023-06-22T07:42:25;15.40;;;13.25;;
65328;SDS011;51941;52.210;5.158;2023-06-22T07:44:52;15.18;;;13.55;;
65328;SDS011;51941;52.210;5.158;2023-06-22T07:47:19;18.35;;;13.98;;
65328;SDS011;51941;52.210;5.158;2023-06-22T07:49:50;16.98;;;13.82;;
65328;SDS011;51941;52.210;5.158;2023-06-22T07:52:17;18.23;;;14.50;;
65328;SDS011;51941;52.210;5.158;2023-06-22T07:54:43;18.25;;;15.27;;
65328;SDS011;51941;52.210;5.158;2023-06-22T07:57:10;17.20;;;13.70;;
65328;SDS011;51941;52.210;5.158;2023-06-22T07:59:38;15.50;;;13.18;;
65328;SDS011;51941;52.210;5.158;2023-06-22T08:02:05;17.60;;;12.90;;
65328;SDS011;51941;52.210;5.158;2023-06-22T08:04:33;19.25;;;14.65;;
65328;SDS011;51941;52.210;5.158;2023-06-22T08:07:00;16.38;;;14.63;;
65328;SDS011;51941;52.210;5.158;2023-06-22T08:09:28;18.17;;;14.07;;
65328;SDS011;51941;52.210;5.158;2023-06-22T08:11:56;17.45;;;15.32;;
65328;SDS011;51941;52.210;5.158;2023-06-22T08:14:23;17.75;;;13.85;;
65328;SDS011;51941;52.210;5.158;2023-06-22T08:16:52;16.08;;;12.73;;
65328;SDS011;51941;52.210;5.158;2023-06-22T08:19:19;14.90;;;11.70;;
65328;SDS011;51941;52.210;5.158;2023-06-22T08:21:46;14.02;;;11.77;;
65328;SDS011;51941;52.210;5.158;2023-06-22T08:24:12;16.23;;;12.20;;
65328;SDS011;51941;52.210;5.158;2023-06-22T08:26:39;14.63;;;10.55;;
65328;SDS011;51941;52.210;5.158;2023-06-22T08:29:06;18.70;;;11.20;;
65328;SDS011;51941;52.210;5.158;2023-06-22T08:31:33;13.77;;;11.38;;
65328;SDS011;51941;52.210;5.158;2023-06-22T08:34:01;12.88;;;10.73;;
65328;SDS011;51941;52.210;5.158;2023-06-22T08:36:28;12.87;;;11.37;;
65328;SDS011;51941;52.210;5.158;2023-06-22T08:39:00;14.43;;;10.07;;
65328;SDS011;51941;52.210;5.158;2023-06-22T08:41:27;13.45;;;11.13;;
65328;SDS011;51941;52.210;5.158;2023-06-22T08:43:54;13.35;;;10.13;;
65328;SDS011;51941;52.210;5.158;2023-06-22T08:46:22;12.50;;;11.20;;
65328;SDS011;51941;52.210;5.158;2023-06-22T08:48:55;15.73;;;11.88;;
65328;SDS011;51941;52.210;5.158;2023-06-22T08:51:23;11.55;;;9.73;;
65328;SDS011;51941;52.210;5.158;2023-06-22T08:53:50;12.15;;;10.35;;
65328;SDS011;51941;52.210;5.158;2023-06-22T08:56:17;13.38;;;11.60;;
65328;SDS011;51941;52.210;5.158;2023-06-22T08:58:44;13.90;;;10.07;;
65328;SDS011;51941;52.210;5.158;2023-06-22T09:01:11;11.68;;;10.45;;
65328;SDS011;51941;52.210;5.158;2023-06-22T09:03:37;12.18;;;9.35;;
65328;SDS011;51941;52.210;5.158;2023-06-22T09:06:04;10.80;;;9.60;;
65328;SDS011;51941;52.210;5.158;2023-06-22T09:08:32;17.55;;;12.05;;
65328;SDS011;51941;52.210;5.158;2023-06-22T09:10:59;12.40;;;9.88;;
65328;SDS011;51941;52.210;5.158;2023-06-22T09:13:26;13.93;;;10.90;;
65328;SDS011;51941;52.210;5.158;2023-06-22T09:15:54;11.65;;;10.35;;
65328;SDS011;51941;52.210;5.158;2023-06-22T09:18:21;15.80;;;12.43;;
65328;SDS011;51941;52.210;5.158;2023-06-22T09:20:47;11.38;;;9.45;;
65328;SDS011;51941;52.210;5.158;2023-06-22T09:23:14;10.88;;;9.77;;
65328;SDS011;51941;52.210;5.158;2023-06-22T09:25:42;9.85;;;8.05;;
65328;SDS011;51941;52.210;5.158;2023-06-22T09:28:09;9.40;;;8.02;;
65328;SDS011;51941;52.210;5.158;2023-06-22T09:30:35;10.52;;;7.32;;
65328;SDS011;51941;52.210;5.158;2023-06-22T09:33:02;11.07;;;6.63;;
65328;SDS011;51941;52.210;5.158;2023-06-22T09:35:29;6.30;;;5.20;;
65328;SDS011;51941;52.210;5.158;2023-06-22T09:37:56;10.60;;;6.28;;
65328;SDS011;51941;52.210;5.158;2023-06-22T09:40:22;10.30;;;6.82;;
65328;SDS011;51941;52.210;5.158;2023-06-22T09:42:50;6.35;;;5.68;;
65328;SDS011;51941;52.210;5.158;2023-06-22T09:45:17;7.82;;;4.82;;
65328;SDS011;51941;52.210;5.158;2023-06-22T09:47:44;9.90;;;6.22;;
65328;SDS011;51941;52.210;5.158;2023-06-22T09:50:11;9.32;;;7.00;;
65328;SDS011;51941;52.210;5.158;2023-06-22T09:52:37;8.43;;;5.50;;
65328;SDS011;51941;52.210;5.158;2023-06-22T09:55:04;7.25;;;5.40;;
65328;SDS011;51941;52.210;5.158;2023-06-22T09:57:31;5.45;;;4.90;;
65328;SDS011;51941;52.210;5.158;2023-06-22T10:00:00;8.90;;;4.78;;
65328;SDS011;51941;52.210;5.158;2023-06-22T10:02:29;8.65;;;5.25;;
65328;SDS011;51941;52.210;5.158;2023-06-22T10:04:56;9.95;;;4.80;;
65328;SDS011;51941;52.210;5.158;2023-06-22T10:07:23;7.20;;;5.05;;
65328;SDS011;51941;52.210;5.158;2023-06-22T10:09:49;8.52;;;5.53;;
65328;SDS011;51941;52.210;5.158;2023-06-22T10:12:16;7.65;;;5.70;;
65328;SDS011;51941;52.210;5.158;2023-06-22T10:14:43;7.45;;;5.63;;
65328;SDS011;51941;52.210;5.158;2023-06-22T10:17:11;8.98;;;4.95;;
65328;SDS011;51941;52.210;5.158;2023-06-22T10:19:38;9.73;;;5.10;;
65328;SDS011;51941;52.210;5.158;2023-06-22T10:22:06;8.43;;;5.30;;
65328;SDS011;51941;52.210;5.158;2023-06-22T10:24:33;8.20;;;6.85;;
65328;SDS011;51941;52.210;5.158;2023-06-22T10:27:00;7.68;;;6.07;;
65328;SDS011;51941;52.210;5.158;2023-06-22T10:29:27;11.57;;;6.82;;
65328;SDS011;51941;52.210;5.158;2023-06-22T10:31:54;10.98;;;7.10;;
65328;SDS011;51941;52.210;5.158;2023-06-22T10:34:22;9.15;;;6.43;;
65328;SDS011;51941;52.210;5.158;2023-06-22T10:36:48;7.80;;;5.80;;
65328;SDS011;51941;52.210;5.158;2023-06-22T10:39:15;10.82;;;8.00;;
65328;SDS011;51941;52.210;5.158;2023-06-22T10:41:42;11.43;;;8.02;;
65328;SDS011;51941;52.210;5.158;2023-06-22T10:44:08;6.25;;;5.15;;
65328;SDS011;51941;52.210;5.158;2023-06-22T10:46:36;10.13;;;6.15;;
65328;SDS011;51941;52.210;5.158;2023-06-22T10:49:02;9.02;;;6.00;;
65328;SDS011;51941;52.210;5.158;2023-06-22T10:51:31;8.05;;;5.38;;
65328;SDS011;51941;52.210;5.158;2023-06-22T10:53:57;5.93;;;5.32;;
65328;SDS011;51941;52.210;5.158;2023-06-22T10:56:24;7.05;;;5.45;;
65328;SDS011;51941;52.210;5.158;2023-06-22T10:58:51;7.22;;;5.68;;
65328;SDS011;51941;52.210;5.158;2023-06-22T11:01:17;7.03;;;5.40;;
65328;SDS011;51941;52.210;5.158;2023-06-22T11:03:44;8.10;;;6.32;;
65328;SDS011;51941;52.210;5.158;2023-06-22T11:06:11;10.02;;;6.40;;
65328;SDS011;51941;52.210;5.158;2023-06-22T11:08:39;7.90;;;6.10;;
65328;SDS011;51941;52.210;5.158;2023-06-22T11:11:06;9.93;;;6.63;;
65328;SDS011;51941;52.210;5.158;2023-06-22T11:13:32;8.05;;;6.10;;
65328;SDS011;51941;52.210;5.158;2023-06-22T11:15:59;9.38;;;5.80;;
65328;SDS011;51941;52.210;5.158;2023-06-22T11:18:26;9.85;;;5.80;;
65328;SDS011;51941;52.210;5.158;2023-06-22T11:20:52;9.88;;;7.03;;
65328;SDS011;51941;52.210;5.158;2023-06-22T11:23:19;8.60;;;6.43;;
65328;SDS011;51941;52.210;5.158;2023-06-22T11:25:47;7.40;;;5.65;;
65328;SDS011;51941;52.210;5.158;2023-06-22T11:28:14;8.52;;;5.90;;
65328;SDS011;51941;52.210;5.158;2023-06-22T11:30:41;9.48;;;6.30;;
65328;SDS011;51941;52.210;5.158;2023-06-22T11:33:07;11.75;;;5.78;;
65328;SDS011;51941;52.210;5.158;2023-06-22T11:35:34;9.57;;;7.15;;
65328;SDS011;51941;52.210;5.158;2023-06-22T11:38:01;8.73;;;5.75;;
65328;SDS011;51941;52.210;5.158;2023-06-22T11:40:29;8.77;;;5.53;;
65328;SDS011;51941;52.210;5.158;2023-06-22T11:42:57;6.72;;;5.35;;
65328;SDS011;51941;52.210;5.158;2023-06-22T11:45:23;6.18;;;5.50;;
65328;SDS011;51941;52.210;5.158;2023-06-22T11:47:50;6.85;;;5.03;;
65328;SDS011;51941;52.210;5.158;2023-06-22T11:50:17;9.77;;;6.25;;
65328;SDS011;51941;52.210;5.158;2023-06-22T11:52:44;11.02;;;6.07;;
65328;SDS011;51941;52.210;5.158;2023-06-22T11:55:11;7.22;;;5.30;;
65328;SDS011;51941;52.210;5.158;2023-06-22T11:57:38;7.47;;;6.63;;
65328;SDS011;51941;52.210;5.158;2023-06-22T12:00:19;8.43;;;6.25;;
65328;SDS011;51941;52.210;5.158;2023-06-22T12:02:48;8.38;;;6.53;;
65328;SDS011;51941;52.210;5.158;2023-06-22T12:05:16;8.02;;;6.78;;
65328;SDS011;51941;52.210;5.158;2023-06-22T12:07:44;8.13;;;6.90;;
65328;SDS011;51941;52.210;5.158;2023-06-22T12:10:10;9.45;;;8.05;;
65328;SDS011;51941;52.210;5.158;2023-06-22T12:12:37;8.20;;;7.35;;
65328;SDS011;51941;52.210;5.158;2023-06-22T12:15:04;9.02;;;7.90;;
65328;SDS011;51941;52.210;5.158;2023-06-22T12:17:33;12.45;;;8.23;;
65328;SDS011;51941;52.210;5.158;2023-06-22T12:20:00;10.00;;;7.45;;
65328;SDS011;51941;52.210;5.158;2023-06-22T12:22:30;9.68;;;8.23;;
65328;SDS011;51941;52.210;5.158;2023-06-22T12:24:57;10.35;;;7.78;;
65328;SDS011;51941;52.210;5.158;2023-06-22T12:27:24;12.15;;;9.25;;
65328;SDS011;51941;52.210;5.158;2023-06-22T12:29:55;12.93;;;10.43;;
65328;SDS011;51941;52.210;5.158;2023-06-22T12:32:22;12.43;;;10.02;;
65328;SDS011;51941;52.210;5.158;2023-06-22T12:34:50;12.52;;;10.07;;
65328;SDS011;51941;52.210;5.158;2023-06-22T12:37:17;14.18;;;10.02;;
65328;SDS011;51941;52.210;5.158;2023-06-22T12:39:44;12.52;;;9.10;;
65328;SDS011;51941;52.210;5.158;2023-06-22T12:42:11;11.07;;;9.90;;
65328;SDS011;51941;52.210;5.158;2023-06-22T12:44:37;10.38;;;9.25;;
65328;SDS011;51941;52.210;5.158;2023-06-22T12:47:05;14.18;;;10.32;;
65328;SDS011;51941;52.210;5.158;2023-06-22T12:49:33;13.50;;;10.00;;
65328;SDS011;51941;52.210;5.158;2023-06-22T12:52:01;11.45;;;9.13;;
65328;SDS011;51941;52.210;5.158;2023-06-22T12:54:28;11.90;;;9.88;;
65328;SDS011;51941;52.210;5.158;2023-06-22T12:56:55;10.05;;;8.57;;
65328;SDS011;51941;52.210;5.158;2023-06-22T12:59:22;12.05;;;8.38;;
65328;SDS011;51941;52.210;5.158;2023-06-22T13:01:49;9.73;;;8.63;;
65328;SDS011;51941;52.210;5.158;2023-06-22T13:04:16;10.07;;;8.48;;
65328;SDS011;51941;52.210;5.158;2023-06-22T13:06:43;9.93;;;7.95;;
65328;SDS011;51941;52.210;5.158;2023-06-22T13:09:13;7.80;;;6.50;;
65328;SDS011;51941;52.210;5.158;2023-06-22T13:11:44;8.27;;;6.35;;
65328;SDS011;51941;52.210;5.158;2023-06-22T13:14:11;7.38;;;5.50;;
65328;SDS011;51941;52.210;5.158;2023-06-22T13:16:38;8.15;;;5.40;;
65328;SDS011;51941;52.210;5.158;2023-06-22T13:19:05;8.23;;;5.47;;
65328;SDS011;51941;52.210;5.158;2023-06-22T13:21:31;7.38;;;5.50;;
65328;SDS011;51941;52.210;5.158;2023-06-22T13:23:59;10.15;;;5.40;;
65328;SDS011;51941;52.210;5.158;2023-06-22T13:26:27;11.45;;;6.72;;
65328;SDS011;51941;52.210;5.158;2023-06-22T13:28:55;7.80;;;6.35;;
65328;SDS011;51941;52.210;5.158;2023-06-22T13:31:22;7.07;;;6.15;;
65328;SDS011;51941;52.210;5.158;2023-06-22T13:33:49;8.93;;;6.47;;
65328;SDS011;51941;52.210;5.158;2023-06-22T13:36:17;7.25;;;6.20;;
65328;SDS011;51941;52.210;5.158;2023-06-22T13:38:44;8.52;;;6.82;;
65328;SDS011;51941;52.210;5.158;2023-06-22T13:41:11;8.48;;;6.10;;
65328;SDS011;51941;52.210;5.158;2023-06-22T13:43:39;9.27;;;7.13;;
65328;SDS011;51941;52.210;5.158;2023-06-22T13:46:06;12.40;;;7.40;;
65328;SDS011;51941;52.210;5.158;2023-06-22T13:48:33;7.93;;;7.13;;
65328;SDS011;51941;52.210;5.158;2023-06-22T13:51:00;10.93;;;6.82;;
65328;SDS011;51941;52.210;5.158;2023-06-22T13:53:26;10.23;;;7.25;;
65328;SDS011;51941;52.210;5.158;2023-06-22T13:55:53;9.50;;;6.90;;
65328;SDS011;51941;52.210;5.158;2023-06-22T13:58:20;8.30;;;6.18;;
65328;SDS011;51941;52.210;5.158;2023-06-22T14:00:48;8.73;;;7.32;;
65328;SDS011;51941;52.210;5.158;2023-06-22T14:03:14;8.90;;;7.18;;
65328;SDS011;51941;52.210;5.158;2023-06-22T14:05:42;9.60;;;7.80;;
65328;SDS011;51941;52.210;5.158;2023-06-22T14:08:08;8.35;;;6.95;;
65328;SDS011;51941;52.210;5.158;2023-06-22T14:10:35;8.85;;;7.05;;
65328;SDS011;51941;52.210;5.158;2023-06-22T14:13:02;8.82;;;7.72;;
65328;SDS011;51941;52.210;5.158;2023-06-22T14:15:31;8.17;;;6.60;;
65328;SDS011;51941;52.210;5.158;2023-06-22T14:17:59;11.35;;;7.22;;
65328;SDS011;51941;52.210;5.158;2023-06-22T14:20:25;9.88;;;7.78;;
65328;SDS011;51941;52.210;5.158;2023-06-22T14:22:52;11.40;;;8.98;;
65328;SDS011;51941;52.210;5.158;2023-06-22T14:25:19;11.73;;;9.60;;
65328;SDS011;51941;52.210;5.158;2023-06-22T14:27:46;10.88;;;9.32;;
65328;SDS011;51941;52.210;5.158;2023-06-22T14:30:13;12.50;;;9.60;;
65328;SDS011;51941;52.210;5.158;2023-06-22T14:32:40;10.48;;;9.38;;
65328;SDS011;51941;52.210;5.158;2023-06-22T14:35:08;9.95;;;8.82;;